Detall de PIREP

Printer-friendly versionPDF version

[2010/01/31 08:15:00]
Flight IATA:CT2111
Pilot Number:041
Company ICAO:CAT
Aircraft Type:F50/A
PAX:31
Departing Airport: LEST
Destination Airport: LEVC
Alternate Airport:LEAL
Online: VATSIM
Route:FORNO1A A33 ZMR A33 DISKO A33 INDEG A33 MAGIN A33 HORTA A33 CJN A33 PRADO A33 CENTA1C


Flight Level:FL180
No Slew and time accel
No pause
Crash detect
Detect pilot in Cockpit between each 30 and 45 minutes
08:15 Zero fuel Weight: 35103 Lbs, Fuel Weight: 4969 Lbs
08:15 VATSIM:LEST 310800Z 26003KT 230V300 7000 SCT002 SCT015 06/06 Q1010 NOSIG
08:15 VATSIM:LEVC 310800Z 26014KT 9999 FEW030 08/03 Q1007 NOSIG
08:17 VOICE CATALONIAN
08:18 Parking Brakes off
08:24 Take-off
08:24 Take off Weight: 39966 Lbs
08:24 Wind: 266º @ 002 Knots Heading: 166º
08:24 POS N42º 53´ 46´´ W008º 24´ 54´´
08:24 Flaps:1 at 131 Knots
08:24 Gear Up: 131 Knots
08:25 Flaps:0 at 152 Knots
08:39 Wind:3
09º@033 Knots Heading: 122º Ground Speed: 240 Knots Altitude 15141 ft
08:41 TOC
08:41 Fuel Weight: 4282 Lb
08:54 Wind:309º@040 Knots Heading: 124º Ground Speed: 300 Knots Altitude 17791 ft
09:09 Wind:312º@044 Knots Heading: 113º Ground Speed: 301 Knots Altitude 17841 ft
09:24 Wind:295º@053 Knots Heading: 117º Ground Speed: 313 Knots Altitude 17841 ft
09:29 TOD
09:29 Fuel Weight: 2857 Lb
09:39 Wind:295º@029 Knots Heading: 119º Ground Speed: 247 Knots Altitude 8877 ft
09:54 Wind:289º@017 Knots Heading: 175º Ground Speed: 209 Knots Altitude 5019 ft
09:55 Flaps:1 at 194 Knots
09:57 Flaps:2 at 165 Knots
10:05 Flaps:3 at 147 Knots
10:06 Gear Down: 137 Knots
10:07 Flaps:4 at 124 Knots
10:09 Wind:279º@007 Knots Heading: 291º Ground Speed: 104 Knots Altitude 2956 ft
10:09 Flaps:5 at 107 Knots
10:09 Flaps:6 at 111 Knots
10:14 TouchDown:Rate -98 ft/min Speed: 93 Knots
1
0:14 VATSIM:LEVC 311000Z 25018KT 9999 FEW030 12/03 Q1007 NOSIG
10:14 Land
10:14 Wind:263º@015 Knots
10:14 Heading: 294º
10:14 Flight Duration: 01:50
10:14 Landing Weight: 36973 Lbs
10:14 POS N39º 29´ 15´´ W000º 28´ 37´´
10:17 Parking brakes on
10:17 Block to Block Duration: 01:59
10:17 Final Fuel: 1847 Lbls
10:17 Spent Fuel: 3121 Lbls
10:17 Flight Length: 458 NM
10:17 TOD Land Length: 153 NM

Exportar CSV

Powered by Drupal - Modified by Danger4k